PWSweather.com
Personal Weather Stations
Station Observations
CANDIOTINO
Barrio Candioti Norte, Santa FeAR 3000

Barrio Candioti NorteSanta FeAR 3000

Lat: -31.632778, Lon: -60.695556

Elevation: 69

Station Type: WH-1081

http://www.eltiempoensantafe.com.ar

Latest ConditionsUpdated 7:15:02 AM GMT-03:57 Saturday, May 25, 2019
Currently Today's Max Today's Min Today's Average
Temperature 50.2°F10.1°C 54.9°F12.7°C 50.2°F10.1°C 52.5°F11.4°C
Dew Point 48.0°F8.9°C 48.4°F9.1°C 47.1°F8.4°C 47.6°F8.7°C
Winds 3.1 mph N5.0 kmh N 5.4 mph -8.7 kmh - - 2.4 mph 3.9 kmh
Wind Gusts 6.9 mph11.1 kmh 11.4 mph18.3 kmh - -
Humidity 92% 92% 75% 84%
Pressure 29.86 in1011.2 mb 29.90 in1012.5 mb 29.83 in1010.2 mb -
Hour Temp Dew Point Humidity Winds Wind Gusts Pressure Precip Precip Rate Daily Precip Total
07:15 AM 50.2°F10.1°C 48.0°F8.9°C 92% 3.1 mph N5.0 kmh N 6.9 mph11.1 kmh 29.86 in1011.2 mb 0.00 in0.0 mm 0.00 in0.0 mm 0.00 in0.0 mm
07:00 AM 50.5°F10.3°C 48.3°F9.1°C 92% 1.6 mph NNE2.6 kmh NNE 6.9 mph11.1 kmh 29.86 in1011.2 mb 0.00 in0.0 mm 0.00 in0.0 mm 0.00 in0.0 mm
06:45 AM 50.7°F10.4°C 48.2°F9.0°C 91% 3.1 mph NNE5.0 kmh NNE 6.9 mph11.1 kmh 29.86 in1011.2 mb 0.00 in0.0 mm 0.00 in0.0 mm 0.00 in0.0 mm
06:30 AM 50.9°F10.5°C 48.1°F8.9°C 90% 2.2 mph N3.5 kmh N 7.6 mph12.2 kmh 29.85 in1010.8 mb 0.00 in0.0 mm 0.00 in0.0 mm 0.00 in0.0 mm
06:15 AM 51.3°F10.7°C 48.4°F9.1°C 90% 3.1 mph N5.0 kmh N 9.8 mph15.8 kmh 29.85 in1010.8 mb 0.00 in0.0 mm 0.00 in0.0 mm 0.00 in0.0 mm
06:00 AM 51.1°F10.6°C 48.3°F9.1°C 90% 5.4 mph N8.7 kmh N 8.3 mph13.4 kmh 29.83 in1010.2 mb 0.00 in0.0 mm 0.00 in0.0 mm 0.00 in0.0 mm
05:45 AM 51.1°F10.6°C 48.0°F8.9°C 89% 3.1 mph NNE5.0 kmh NNE 11.4 mph18.3 kmh 29.84 in1010.5 mb 0.00 in0.0 mm 0.00 in0.0 mm 0.00 in0.0 mm
05:30 AM 51.4°F10.8°C 48.3°F9.1°C 89% 3.8 mph N6.1 kmh N 7.6 mph12.2 kmh 29.84 in1010.5 mb 0.00 in0.0 mm 0.00 in0.0 mm 0.00 in0.0 mm
05:15 AM 51.3°F10.7°C 48.1°F8.9°C 89% 3.1 mph N5.0 kmh N 7.6 mph12.2 kmh 29.84 in1010.5 mb 0.00 in0.0 mm 0.00 in0.0 mm 0.00 in0.0 mm
05:00 AM 51.3°F10.7°C 48.1°F8.9°C 89% 2.2 mph NNE3.5 kmh NNE 6.9 mph11.1 kmh 29.83 in1010.2 mb 0.00 in0.0 mm 0.00 in0.0 mm 0.00 in0.0 mm
04:45 AM 51.3°F10.7°C 47.8°F8.8°C 88% 0.7 mph N1.1 kmh N 5.4 mph8.7 kmh 29.83 in1010.2 mb 0.00 in0.0 mm 0.00 in0.0 mm 0.00 in0.0 mm
04:30 AM 51.4°F10.8°C 47.7°F8.7°C 87% 1.6 mph N2.6 kmh N 5.4 mph8.7 kmh 29.84 in1010.5 mb 0.00 in0.0 mm 0.00 in0.0 mm 0.00 in0.0 mm
04:15 AM 51.6°F10.9°C 47.6°F8.7°C 86% Calm Calm 6.0 mph9.7 kmh 29.84 in1010.5 mb 0.00 in0.0 mm 0.00 in0.0 mm 0.00 in0.0 mm
04:00 AM 52.0°F11.1°C 47.3°F8.5°C 84% 3.1 mph NNE5.0 kmh NNE 3.8 mph6.1 kmh 29.85 in1010.8 mb 0.00 in0.0 mm 0.00 in0.0 mm 0.00 in0.0 mm
03:45 AM 52.2°F11.2°C 47.5°F8.6°C 84% 2.2 mph N3.5 kmh N 3.1 mph5.0 kmh 29.85 in1010.8 mb 0.00 in0.0 mm 0.00 in0.0 mm 0.00 in0.0 mm
03:30 AM 52.5°F11.4°C 47.5°F8.6°C 83% 0.7 mph NNE1.1 kmh NNE 4.5 mph7.2 kmh 29.86 in1011.2 mb 0.00 in0.0 mm 0.00 in0.0 mm 0.00 in0.0 mm
03:15 AM 52.7°F11.5°C 47.4°F8.6°C 82% 3.1 mph NE5.0 kmh NE 4.5 mph7.2 kmh 29.86 in1011.2 mb 0.00 in0.0 mm 0.00 in0.0 mm 0.00 in0.0 mm
03:00 AM 52.9°F11.6°C 47.5°F8.6°C 82% 1.6 mph N2.6 kmh N 4.5 mph7.2 kmh 29.86 in1011.2 mb 0.00 in0.0 mm 0.00 in0.0 mm 0.00 in0.0 mm
02:45 AM 52.9°F11.6°C 47.2°F8.4°C 81% 0.7 mph N1.1 kmh N 3.8 mph6.1 kmh 29.86 in1011.2 mb 0.00 in0.0 mm 0.00 in0.0 mm 0.00 in0.0 mm
02:30 AM 53.1°F11.7°C 47.1°F8.4°C 80% 3.1 mph N5.0 kmh N 6.0 mph9.7 kmh 29.87 in1011.5 mb 0.00 in0.0 mm 0.00 in0.0 mm 0.00 in0.0 mm
02:15 AM 53.2°F11.8°C 47.2°F8.4°C 80% 1.6 mph NE2.6 kmh NE 6.9 mph11.1 kmh 29.87 in1011.5 mb 0.00 in0.0 mm 0.00 in0.0 mm 0.00 in0.0 mm
02:00 AM 53.6°F12.0°C 47.3°F8.5°C 79% 4.5 mph NNE7.2 kmh NNE 8.3 mph13.4 kmh 29.87 in1011.5 mb 0.00 in0.0 mm 0.00 in0.0 mm 0.00 in0.0 mm
01:45 AM 53.6°F12.0°C 47.3°F8.5°C 79% 3.1 mph N5.0 kmh N 8.3 mph13.4 kmh 29.87 in1011.5 mb 0.00 in0.0 mm 0.00 in0.0 mm 0.00 in0.0 mm
01:30 AM 54.0°F12.2°C 47.3°F8.5°C 78% 2.2 mph NNE3.5 kmh NNE 7.6 mph12.2 kmh 29.87 in1011.5 mb 0.00 in0.0 mm 0.00 in0.0 mm 0.00 in0.0 mm
01:15 AM 54.3°F12.4°C 47.3°F8.5°C 77% 3.1 mph NNE5.0 kmh NNE 7.6 mph12.2 kmh 29.87 in1011.5 mb 0.00 in0.0 mm 0.00 in0.0 mm 0.00 in0.0 mm
01:00 AM 54.7°F12.6°C 47.3°F8.5°C 76% 3.8 mph NNE6.1 kmh NNE 9.2 mph14.8 kmh 29.88 in1011.9 mb 0.00 in0.0 mm 0.00 in0.0 mm 0.00 in0.0 mm
12:45 AM 54.9°F12.7°C 47.1°F8.4°C 75% 2.2 mph NE3.5 kmh NE 9.2 mph14.8 kmh 29.88 in1011.9 mb 0.00 in0.0 mm 0.00 in0.0 mm 0.00 in0.0 mm
12:30 AM 54.9°F12.7°C 47.4°F8.6°C 76% 2.2 mph NNE3.5 kmh NNE 9.2 mph14.8 kmh 29.89 in1012.2 mb 0.00 in0.0 mm 0.00 in0.0 mm 0.00 in0.0 mm
12:15 AM 54.7°F12.6°C 47.3°F8.5°C 76% 1.6 mph NE2.6 kmh NE 6.0 mph9.7 kmh 29.89 in1012.2 mb 0.00 in0.0 mm 0.00 in0.0 mm 0.00 in0.0 mm
12:00 AM 54.5°F12.5°C 47.1°F8.4°C 76% 0.7 mph NE1.1 kmh NE 3.1 mph5.0 kmh 29.90 in1012.5 mb 0.00 in0.0 mm 0.00 in0.0 mm 0.00 in0.0 mm